This is the latest recevied weather packets stored in our database for station/object KR8N. If no packets are shown the sender has not sent any weather packets the latest 10 day(s).
| Time | Temp. | Humidity | Pressure | Rain* | Wind** | Luminosity | Snow |
|---|---|---|---|---|---|---|---|
| 1777224166 | 17.22° C | 67% | 1019.6 hPa | 0 mm | - | 796 W/m² | - |
| 1777223863 | 16.67° C | 66% | 1019.7 hPa | 0 mm | - | 972 W/m² | - |
| 1777223560 | 16.67° C | 68% | 1019.7 hPa | 0 mm | - | 306 W/m² | - |
| 1777223257 | 16.67° C | 70% | 1019.9 hPa | 0 mm | - | 892 W/m² | - |
| 1777222955 | 16.67° C | 67% | 1019.7 hPa | 0 mm | - | 417 W/m² | - |
| 1777222652 | 16.67° C | 66% | 1019.9 hPa | 0 mm | - | 396 W/m² | - |
| 1777222349 | 16.11° C | 68% | 1019.7 hPa | 0 mm | - | 853 W/m² | - |
| 1777222048 | 16.11° C | 68% | 1020 hPa | 0 mm | - | 615 W/m² | - |
| 1777221743 | 16.67° C | 66% | 1020 hPa | 0 mm | - | 428 W/m² | - |
| 1777221439 | 16.11° C | 67% | 1020.1 hPa | 0 mm | - | 566 W/m² | - |
| 1777221138 | 15.56° C | 71% | 1020.1 hPa | 0 mm | - | 1233 W/m² | - |
| 1777220833 | 15.56° C | 71% | 1020.1 hPa | 0 mm | - | 481 W/m² | - |
| 1777220528 | 15.56° C | 71% | 1020 hPa | 0 mm | - | 361 W/m² | - |
| 1777220223 | 15.56° C | 71% | 1020.1 hPa | 0 mm | - | 597 W/m² | - |
| 1777219920 | 15.56° C | 71% | 1020.2 hPa | 0 mm | - | 1277 W/m² | - |
| 1777219617 | 15.56° C | 70% | 1020.2 hPa | 0 mm | - | 388 W/m² | - |
| 1777219314 | 15.56° C | 69% | 1020.2 hPa | 0 mm | - | 427 W/m² | - |
| 1777219010 | 15° C | 69% | 1020.1 hPa | 0 mm | - | 497 W/m² | - |
| 1777218705 | 15° C | 72% | 1020.2 hPa | 0 mm | - | 470 W/m² | - |
| 1777218401 | 14.44° C | 71% | 1020.3 hPa | 0 mm | - | 325 W/m² | - |
| 1777218098 | 15° C | 71% | 1020.2 hPa | 0 mm | - | 309 W/m² | - |
| 1777217793 | 14.44° C | 74% | 1020.3 hPa | 0 mm | - | 298 W/m² | - |
| 1777217490 | 15° C | 71% | 1020.2 hPa | 0 mm | - | 292 W/m² | - |
| 1777217186 | 14.44° C | 73% | 1020.2 hPa | 0 mm | - | 693 W/m² | - |
| 1777216882 | 13.89° C | 74% | 1020 hPa | 0 mm | - | 312 W/m² | - |
* Rain latest hour (hover to see other rain measurements)
** Current wind speed in m/s (hover to see current wind gust speed)